sensor_id;sensor_type;location;lat;lon;timestamp;P1;durP1;ratioP1;P2;durP2;ratioP2
47365;SDS011;33105;47.964;7.982;2023-03-23T00:01:30;1.88;;;1.15;;
47365;SDS011;33105;47.964;7.982;2023-03-23T00:04:32;3.67;;;1.58;;
47365;SDS011;33105;47.964;7.982;2023-03-23T00:07:34;3.17;;;1.40;;
47365;SDS011;33105;47.964;7.982;2023-03-23T00:10:36;2.25;;;1.23;;
47365;SDS011;33105;47.964;7.982;2023-03-23T00:13:37;3.20;;;1.00;;
47365;SDS011;33105;47.964;7.982;2023-03-23T00:16:39;1.60;;;1.23;;
47365;SDS011;33105;47.964;7.982;2023-03-23T00:19:45;1.23;;;1.13;;
47365;SDS011;33105;47.964;7.982;2023-03-23T00:22:52;2.38;;;1.42;;
47365;SDS011;33105;47.964;7.982;2023-03-23T00:25:54;2.72;;;1.35;;
47365;SDS011;33105;47.964;7.982;2023-03-23T00:29:00;6.20;;;1.77;;
47365;SDS011;33105;47.964;7.982;2023-03-23T00:32:03;2.30;;;1.17;;
47365;SDS011;33105;47.964;7.982;2023-03-23T00:35:07;2.28;;;1.23;;
47365;SDS011;33105;47.964;7.982;2023-03-23T00:38:08;1.55;;;1.30;;
47365;SDS011;33105;47.964;7.982;2023-03-23T00:41:10;2.45;;;1.13;;
47365;SDS011;33105;47.964;7.982;2023-03-23T00:44:12;1.10;;;0.98;;
47365;SDS011;33105;47.964;7.982;2023-03-23T00:47:17;1.70;;;1.13;;
47365;SDS011;33105;47.964;7.982;2023-03-23T00:50:18;1.25;;;1.00;;
47365;SDS011;33105;47.964;7.982;2023-03-23T00:53:20;1.63;;;0.98;;
47365;SDS011;33105;47.964;7.982;2023-03-23T00:56:21;3.33;;;1.17;;
47365;SDS011;33105;47.964;7.982;2023-03-23T00:59:24;3.67;;;1.30;;
47365;SDS011;33105;47.964;7.982;2023-03-23T01:02:26;1.83;;;1.10;;
47365;SDS011;33105;47.964;7.982;2023-03-23T01:05:27;0.80;;;0.80;;
47365;SDS011;33105;47.964;7.982;2023-03-23T01:08:33;2.17;;;1.15;;
47365;SDS011;33105;47.964;7.982;2023-03-23T01:11:34;1.30;;;0.90;;
47365;SDS011;33105;47.964;7.982;2023-03-23T01:14:38;6.72;;;1.17;;
47365;SDS011;33105;47.964;7.982;2023-03-23T01:17:44;1.85;;;1.05;;
47365;SDS011;33105;47.964;7.982;2023-03-23T01:24:14;1.63;;;0.77;;
47365;SDS011;33105;47.964;7.982;2023-03-23T01:27:16;2.22;;;0.70;;
47365;SDS011;33105;47.964;7.982;2023-03-23T01:30:17;2.08;;;0.80;;
47365;SDS011;33105;47.964;7.982;2023-03-23T01:33:19;1.30;;;0.95;;
47365;SDS011;33105;47.964;7.982;2023-03-23T01:36:44;1.90;;;0.90;;
47365;SDS011;33105;47.964;7.982;2023-03-23T01:39:58;2.85;;;1.10;;
47365;SDS011;33105;47.964;7.982;2023-03-23T01:43:22;3.03;;;1.38;;
47365;SDS011;33105;47.964;7.982;2023-03-23T01:46:37;3.00;;;0.90;;
47365;SDS011;33105;47.964;7.982;2023-03-23T01:49:40;1.38;;;0.90;;
47365;SDS011;33105;47.964;7.982;2023-03-23T01:52:46;1.75;;;1.00;;
47365;SDS011;33105;47.964;7.982;2023-03-23T01:55:50;1.60;;;0.90;;
47365;SDS011;33105;47.964;7.982;2023-03-23T01:58:58;1.13;;;0.80;;
47365;SDS011;33105;47.964;7.982;2023-03-23T02:02:00;1.42;;;1.08;;
47365;SDS011;33105;47.964;7.982;2023-03-23T02:05:48;1.85;;;1.10;;
47365;SDS011;33105;47.964;7.982;2023-03-23T02:09:16;1.95;;;0.80;;
47365;SDS011;33105;47.964;7.982;2023-03-23T02:12:26;1.35;;;0.77;;
47365;SDS011;33105;47.964;7.982;2023-03-23T02:15:43;1.88;;;0.75;;
47365;SDS011;33105;47.964;7.982;2023-03-23T02:23:19;1.05;;;0.70;;
47365;SDS011;33105;47.964;7.982;2023-03-23T02:38:58;3.40;;;0.90;;
47365;SDS011;33105;47.964;7.982;2023-03-23T02:42:15;1.90;;;1.08;;
47365;SDS011;33105;47.964;7.982;2023-03-23T02:45:24;9.40;;;0.98;;
47365;SDS011;33105;47.964;7.982;2023-03-23T02:48:36;4.30;;;0.95;;
47365;SDS011;33105;47.964;7.982;2023-03-23T02:51:47;3.70;;;0.90;;
47365;SDS011;33105;47.964;7.982;2023-03-23T02:55:04;1.92;;;1.10;;
47365;SDS011;33105;47.964;7.982;2023-03-23T02:58:07;4.40;;;1.02;;
47365;SDS011;33105;47.964;7.982;2023-03-23T03:01:45;1.90;;;1.17;;
47365;SDS011;33105;47.964;7.982;2023-03-23T03:08:39;1.88;;;0.90;;
47365;SDS011;33105;47.964;7.982;2023-03-23T03:20:18;3.45;;;1.02;;
47365;SDS011;33105;47.964;7.982;2023-03-23T03:23:41;1.30;;;0.70;;
47365;SDS011;33105;47.964;7.982;2023-03-23T03:30:57;2.55;;;1.00;;
47365;SDS011;33105;47.964;7.982;2023-03-23T03:34:39;1.75;;;0.73;;
47365;SDS011;33105;47.964;7.982;2023-03-23T03:37:58;1.70;;;0.90;;
47365;SDS011;33105;47.964;7.982;2023-03-23T03:41:51;1.60;;;0.95;;
47365;SDS011;33105;47.964;7.982;2023-03-23T03:45:19;1.90;;;1.00;;
47365;SDS011;33105;47.964;7.982;2023-03-23T03:49:00;2.13;;;1.02;;
47365;SDS011;33105;47.964;7.982;2023-03-23T03:58:12;1.00;;;0.88;;
47365;SDS011;33105;47.964;7.982;2023-03-23T04:01:28;2.58;;;1.10;;
47365;SDS011;33105;47.964;7.982;2023-03-23T04:04:30;1.83;;;1.10;;
47365;SDS011;33105;47.964;7.982;2023-03-23T04:07:32;2.15;;;1.10;;
47365;SDS011;33105;47.964;7.982;2023-03-23T04:10:33;3.17;;;1.08;;
47365;SDS011;33105;47.964;7.982;2023-03-23T04:13:37;2.15;;;0.90;;
47365;SDS011;33105;47.964;7.982;2023-03-23T04:17:01;2.03;;;1.30;;
47365;SDS011;33105;47.964;7.982;2023-03-23T04:20:21;1.70;;;0.87;;
47365;SDS011;33105;47.964;7.982;2023-03-23T04:31:41;2.92;;;0.98;;
47365;SDS011;33105;47.964;7.982;2023-03-23T04:35:29;1.50;;;0.90;;
47365;SDS011;33105;47.964;7.982;2023-03-23T04:42:48;2.58;;;1.15;;
47365;SDS011;33105;47.964;7.982;2023-03-23T04:46:46;1.30;;;1.05;;
47365;SDS011;33105;47.964;7.982;2023-03-23T04:50:09;2.30;;;1.00;;
47365;SDS011;33105;47.964;7.982;2023-03-23T04:54:08;2.08;;;1.23;;
47365;SDS011;33105;47.964;7.982;2023-03-23T04:57:18;2.65;;;1.30;;
47365;SDS011;33105;47.964;7.982;2023-03-23T05:00:57;4.95;;;1.35;;
47365;SDS011;33105;47.964;7.982;2023-03-23T05:04:33;1.48;;;1.20;;
47365;SDS011;33105;47.964;7.982;2023-03-23T05:07:45;3.97;;;1.30;;
47365;SDS011;33105;47.964;7.982;2023-03-23T05:10:56;1.95;;;1.15;;
47365;SDS011;33105;47.964;7.982;2023-03-23T05:14:02;2.05;;;1.30;;
47365;SDS011;33105;47.964;7.982;2023-03-23T05:17:05;2.15;;;1.40;;
47365;SDS011;33105;47.964;7.982;2023-03-23T05:20:10;2.65;;;1.48;;
47365;SDS011;33105;47.964;7.982;2023-03-23T05:24:02;3.72;;;1.75;;
47365;SDS011;33105;47.964;7.982;2023-03-23T05:27:04;6.05;;;1.60;;
47365;SDS011;33105;47.964;7.982;2023-03-23T05:30:10;4.50;;;1.52;;
47365;SDS011;33105;47.964;7.982;2023-03-23T05:33:14;1.92;;;1.50;;
47365;SDS011;33105;47.964;7.982;2023-03-23T05:36:39;2.47;;;1.33;;
47365;SDS011;33105;47.964;7.982;2023-03-23T05:39:45;4.75;;;1.80;;
47365;SDS011;33105;47.964;7.982;2023-03-23T05:43:07;3.15;;;1.80;;
47365;SDS011;33105;47.964;7.982;2023-03-23T05:46:36;4.78;;;1.60;;
47365;SDS011;33105;47.964;7.982;2023-03-23T05:49:37;1.45;;;1.30;;
47365;SDS011;33105;47.964;7.982;2023-03-23T05:52:42;2.70;;;1.60;;
47365;SDS011;33105;47.964;7.982;2023-03-23T05:55:46;3.13;;;1.50;;
47365;SDS011;33105;47.964;7.982;2023-03-23T05:58:57;3.17;;;1.58;;
47365;SDS011;33105;47.964;7.982;2023-03-23T06:01:59;1.83;;;1.50;;
47365;SDS011;33105;47.964;7.982;2023-03-23T06:05:01;3.05;;;1.48;;
47365;SDS011;33105;47.964;7.982;2023-03-23T06:08:07;2.30;;;1.65;;
47365;SDS011;33105;47.964;7.982;2023-03-23T06:11:09;2.05;;;1.33;;
47365;SDS011;33105;47.964;7.982;2023-03-23T06:14:17;2.97;;;1.75;;
47365;SDS011;33105;47.964;7.982;2023-03-23T06:17:20;4.25;;;1.95;;
47365;SDS011;33105;47.964;7.982;2023-03-23T06:20:44;3.90;;;1.92;;
47365;SDS011;33105;47.964;7.982;2023-03-23T06:24:04;3.20;;;1.70;;
47365;SDS011;33105;47.964;7.982;2023-03-23T06:27:36;4.38;;;1.48;;
47365;SDS011;33105;47.964;7.982;2023-03-23T06:30:39;2.53;;;1.58;;
47365;SDS011;33105;47.964;7.982;2023-03-23T06:33:44;3.53;;;1.60;;
47365;SDS011;33105;47.964;7.982;2023-03-23T06:37:01;3.58;;;1.48;;
47365;SDS011;33105;47.964;7.982;2023-03-23T06:44:52;3.28;;;2.00;;
47365;SDS011;33105;47.964;7.982;2023-03-23T06:51:42;3.88;;;2.50;;
47365;SDS011;33105;47.964;7.982;2023-03-23T06:55:08;2.35;;;1.50;;
47365;SDS011;33105;47.964;7.982;2023-03-23T06:58:26;4.38;;;1.60;;
47365;SDS011;33105;47.964;7.982;2023-03-23T07:01:28;2.47;;;1.52;;
47365;SDS011;33105;47.964;7.982;2023-03-23T07:04:34;1.80;;;1.20;;
47365;SDS011;33105;47.964;7.982;2023-03-23T07:08:08;2.63;;;1.77;;
47365;SDS011;33105;47.964;7.982;2023-03-23T07:11:29;3.65;;;1.25;;
47365;SDS011;33105;47.964;7.982;2023-03-23T07:14:46;3.00;;;1.40;;
47365;SDS011;33105;47.964;7.982;2023-03-23T07:18:03;3.47;;;1.80;;
47365;SDS011;33105;47.964;7.982;2023-03-23T07:21:21;3.03;;;1.55;;
47365;SDS011;33105;47.964;7.982;2023-03-23T07:24:55;11.82;;;6.18;;
47365;SDS011;33105;47.964;7.982;2023-03-23T07:28:16;2.97;;;1.95;;
47365;SDS011;33105;47.964;7.982;2023-03-23T07:31:19;3.13;;;1.80;;
47365;SDS011;33105;47.964;7.982;2023-03-23T07:34:24;3.33;;;1.58;;
47365;SDS011;33105;47.964;7.982;2023-03-23T07:37:38;2.88;;;1.50;;
47365;SDS011;33105;47.964;7.982;2023-03-23T07:40:39;2.38;;;1.23;;
47365;SDS011;33105;47.964;7.982;2023-03-23T07:43:48;2.72;;;1.50;;
47365;SDS011;33105;47.964;7.982;2023-03-23T07:46:57;3.08;;;1.50;;
47365;SDS011;33105;47.964;7.982;2023-03-23T07:50:07;2.75;;;1.50;;
47365;SDS011;33105;47.964;7.982;2023-03-23T07:53:15;3.13;;;1.43;;
47365;SDS011;33105;47.964;7.982;2023-03-23T07:56:22;4.40;;;1.70;;
47365;SDS011;33105;47.964;7.982;2023-03-23T07:59:40;2.58;;;1.60;;
47365;SDS011;33105;47.964;7.982;2023-03-23T08:02:42;5.57;;;1.95;;
47365;SDS011;33105;47.964;7.982;2023-03-23T08:06:09;6.72;;;2.08;;
47365;SDS011;33105;47.964;7.982;2023-03-23T08:09:25;2.78;;;1.55;;
47365;SDS011;33105;47.964;7.982;2023-03-23T08:13:00;4.18;;;1.50;;
47365;SDS011;33105;47.964;7.982;2023-03-23T08:16:20;2.90;;;1.70;;
47365;SDS011;33105;47.964;7.982;2023-03-23T08:19:41;3.58;;;1.80;;
47365;SDS011;33105;47.964;7.982;2023-03-23T08:23:22;5.85;;;2.28;;
47365;SDS011;33105;47.964;7.982;2023-03-23T08:26:38;3.33;;;1.92;;
47365;SDS011;33105;47.964;7.982;2023-03-23T08:30:04;3.35;;;2.08;;
47365;SDS011;33105;47.964;7.982;2023-03-23T08:33:34;4.93;;;2.53;;
47365;SDS011;33105;47.964;7.982;2023-03-23T08:36:54;5.20;;;2.40;;
47365;SDS011;33105;47.964;7.982;2023-03-23T08:40:14;3.17;;;1.90;;
47365;SDS011;33105;47.964;7.982;2023-03-23T08:43:25;3.47;;;2.05;;
47365;SDS011;33105;47.964;7.982;2023-03-23T08:46:48;8.52;;;2.83;;
47365;SDS011;33105;47.964;7.982;2023-03-23T08:50:01;6.97;;;2.60;;
47365;SDS011;33105;47.964;7.982;2023-03-23T08:53:25;6.97;;;2.95;;
47365;SDS011;33105;47.964;7.982;2023-03-23T08:56:52;4.97;;;2.80;;
47365;SDS011;33105;47.964;7.982;2023-03-23T09:00:08;7.95;;;2.80;;
47365;SDS011;33105;47.964;7.982;2023-03-23T09:03:45;8.45;;;3.17;;
47365;SDS011;33105;47.964;7.982;2023-03-23T09:07:01;7.10;;;2.80;;
47365;SDS011;33105;47.964;7.982;2023-03-23T09:10:03;5.25;;;3.10;;
47365;SDS011;33105;47.964;7.982;2023-03-23T09:13:05;5.65;;;3.05;;
47365;SDS011;33105;47.964;7.982;2023-03-23T09:16:07;5.30;;;3.60;;
47365;SDS011;33105;47.964;7.982;2023-03-23T09:19:08;7.40;;;3.83;;
47365;SDS011;33105;47.964;7.982;2023-03-23T09:22:12;6.80;;;4.00;;
47365;SDS011;33105;47.964;7.982;2023-03-23T09:25:21;9.57;;;4.65;;
47365;SDS011;33105;47.964;7.982;2023-03-23T09:28:26;5.43;;;3.15;;
47365;SDS011;33105;47.964;7.982;2023-03-23T09:31:27;3.70;;;2.85;;
47365;SDS011;33105;47.964;7.982;2023-03-23T09:34:29;7.07;;;3.08;;
47365;SDS011;33105;47.964;7.982;2023-03-23T09:37:31;3.80;;;3.05;;
47365;SDS011;33105;47.964;7.982;2023-03-23T09:47:25;5.72;;;3.38;;
47365;SDS011;33105;47.964;7.982;2023-03-23T09:50:37;5.95;;;2.90;;
47365;SDS011;33105;47.964;7.982;2023-03-23T09:53:48;4.65;;;2.80;;
47365;SDS011;33105;47.964;7.982;2023-03-23T09:56:57;4.00;;;3.10;;
47365;SDS011;33105;47.964;7.982;2023-03-23T10:00:30;6.90;;;2.80;;
47365;SDS011;33105;47.964;7.982;2023-03-23T10:06:49;7.32;;;2.92;;
47365;SDS011;33105;47.964;7.982;2023-03-23T10:10:01;3.20;;;2.00;;
47365;SDS011;33105;47.964;7.982;2023-03-23T10:13:08;2.63;;;1.70;;
47365;SDS011;33105;47.964;7.982;2023-03-23T10:16:35;2.28;;;1.35;;
47365;SDS011;33105;47.964;7.982;2023-03-23T10:30:17;3.38;;;1.63;;
47365;SDS011;33105;47.964;7.982;2023-03-23T10:38:33;3.30;;;1.88;;
47365;SDS011;33105;47.964;7.982;2023-03-23T10:41:38;2.78;;;1.33;;
47365;SDS011;33105;47.964;7.982;2023-03-23T10:44:39;2.42;;;1.35;;
47365;SDS011;33105;47.964;7.982;2023-03-23T10:47:43;2.30;;;1.23;;
47365;SDS011;33105;47.964;7.982;2023-03-23T10:50:52;2.50;;;1.60;;
47365;SDS011;33105;47.964;7.982;2023-03-23T10:54:01;2.80;;;1.63;;
47365;SDS011;33105;47.964;7.982;2023-03-23T11:01:49;3.00;;;1.50;;
47365;SDS011;33105;47.964;7.982;2023-03-23T11:14:47;2.15;;;1.35;;
47365;SDS011;33105;47.964;7.982;2023-03-23T11:18:39;2.58;;;1.50;;
47365;SDS011;33105;47.964;7.982;2023-03-23T11:22:49;6.03;;;1.20;;
47365;SDS011;33105;47.964;7.982;2023-03-23T11:26:50;1.83;;;1.08;;
47365;SDS011;33105;47.964;7.982;2023-03-23T12:06:30;2.65;;;1.58;;
47365;SDS011;33105;47.964;7.982;2023-03-23T12:10:30;2.35;;;1.45;;
47365;SDS011;33105;47.964;7.982;2023-03-23T12:36:46;4.93;;;1.70;;
47365;SDS011;33105;47.964;7.982;2023-03-23T12:41:02;4.70;;;1.33;;
47365;SDS011;33105;47.964;7.982;2023-03-23T12:44:32;2.47;;;1.52;;
47365;SDS011;33105;47.964;7.982;2023-03-23T12:59:52;2.10;;;1.33;;
47365;SDS011;33105;47.964;7.982;2023-03-23T13:04:34;2.50;;;1.30;;
47365;SDS011;33105;47.964;7.982;2023-03-23T13:27:22;3.60;;;1.30;;
47365;SDS011;33105;47.964;7.982;2023-03-23T13:31:11;1.85;;;1.65;;
47365;SDS011;33105;47.964;7.982;2023-03-23T13:34:43;3.53;;;1.80;;
47365;SDS011;33105;47.964;7.982;2023-03-23T13:38:47;2.70;;;1.77;;
47365;SDS011;33105;47.964;7.982;2023-03-23T13:56:02;2.60;;;1.50;;
47365;SDS011;33105;47.964;7.982;2023-03-23T14:04:31;4.45;;;1.55;;
47365;SDS011;33105;47.964;7.982;2023-03-23T14:07:53;2.67;;;1.50;;
47365;SDS011;33105;47.964;7.982;2023-03-23T14:15:40;2.10;;;1.25;;
47365;SDS011;33105;47.964;7.982;2023-03-23T14:22:53;2.47;;;1.38;;
47365;SDS011;33105;47.964;7.982;2023-03-23T14:29:44;1.55;;;1.33;;
47365;SDS011;33105;47.964;7.982;2023-03-23T14:33:03;1.20;;;1.08;;
47365;SDS011;33105;47.964;7.982;2023-03-23T14:37:03;3.00;;;1.50;;
47365;SDS011;33105;47.964;7.982;2023-03-23T14:40:05;2.60;;;1.55;;
47365;SDS011;33105;47.964;7.982;2023-03-23T14:52:39;2.55;;;1.40;;
47365;SDS011;33105;47.964;7.982;2023-03-23T14:57:16;1.90;;;1.52;;
47365;SDS011;33105;47.964;7.982;2023-03-23T15:00:41;2.58;;;1.23;;
47365;SDS011;33105;47.964;7.982;2023-03-23T15:04:19;3.20;;;1.88;;
47365;SDS011;33105;47.964;7.982;2023-03-23T15:07:42;2.47;;;1.60;;
47365;SDS011;33105;47.964;7.982;2023-03-23T15:11:41;3.63;;;1.67;;
47365;SDS011;33105;47.964;7.982;2023-03-23T15:19:36;4.30;;;1.80;;
47365;SDS011;33105;47.964;7.982;2023-03-23T15:28:16;2.70;;;1.73;;
47365;SDS011;33105;47.964;7.982;2023-03-23T15:32:09;5.13;;;1.98;;
47365;SDS011;33105;47.964;7.982;2023-03-23T15:35:34;2.10;;;1.50;;
47365;SDS011;33105;47.964;7.982;2023-03-23T15:39:05;3.53;;;1.88;;
47365;SDS011;33105;47.964;7.982;2023-03-23T15:47:01;5.53;;;1.67;;
47365;SDS011;33105;47.964;7.982;2023-03-23T15:53:59;5.82;;;2.00;;
47365;SDS011;33105;47.964;7.982;2023-03-23T15:57:45;3.30;;;1.70;;
47365;SDS011;33105;47.964;7.982;2023-03-23T16:00:46;2.15;;;1.45;;
47365;SDS011;33105;47.964;7.982;2023-03-23T16:04:45;3.65;;;1.65;;
47365;SDS011;33105;47.964;7.982;2023-03-23T16:08:40;2.08;;;1.50;;
47365;SDS011;33105;47.964;7.982;2023-03-23T16:20:57;2.15;;;1.50;;
47365;SDS011;33105;47.964;7.982;2023-03-23T16:23:58;3.70;;;1.73;;
47365;SDS011;33105;47.964;7.982;2023-03-23T16:27:00;2.38;;;1.60;;
47365;SDS011;33105;47.964;7.982;2023-03-23T16:30:19;4.90;;;1.55;;
47365;SDS011;33105;47.964;7.982;2023-03-23T16:37:54;2.95;;;1.73;;
47365;SDS011;33105;47.964;7.982;2023-03-23T16:41:36;1.83;;;1.42;;
47365;SDS011;33105;47.964;7.982;2023-03-23T16:44:48;3.17;;;1.50;;
47365;SDS011;33105;47.964;7.982;2023-03-23T16:48:09;1.75;;;1.63;;
47365;SDS011;33105;47.964;7.982;2023-03-23T16:51:32;3.55;;;1.90;;
47365;SDS011;33105;47.964;7.982;2023-03-23T16:54:34;3.00;;;1.83;;
47365;SDS011;33105;47.964;7.982;2023-03-23T16:57:35;3.55;;;1.90;;
47365;SDS011;33105;47.964;7.982;2023-03-23T17:01:08;3.25;;;1.80;;
47365;SDS011;33105;47.964;7.982;2023-03-23T17:04:45;3.67;;;2.10;;
47365;SDS011;33105;47.964;7.982;2023-03-23T17:07:59;5.05;;;1.90;;
47365;SDS011;33105;47.964;7.982;2023-03-23T17:11:00;4.88;;;1.73;;
47365;SDS011;33105;47.964;7.982;2023-03-23T17:14:05;3.42;;;1.50;;
47365;SDS011;33105;47.964;7.982;2023-03-23T17:17:36;2.17;;;1.70;;
47365;SDS011;33105;47.964;7.982;2023-03-23T17:21:27;3.97;;;1.75;;
47365;SDS011;33105;47.964;7.982;2023-03-23T17:24:59;3.70;;;1.50;;
47365;SDS011;33105;47.964;7.982;2023-03-23T17:28:34;2.92;;;1.60;;
47365;SDS011;33105;47.964;7.982;2023-03-23T17:32:01;3.38;;;1.48;;
47365;SDS011;33105;47.964;7.982;2023-03-23T17:35:04;2.50;;;1.60;;
47365;SDS011;33105;47.964;7.982;2023-03-23T17:38:06;2.25;;;1.50;;
47365;SDS011;33105;47.964;7.982;2023-03-23T17:41:20;2.97;;;1.30;;
47365;SDS011;33105;47.964;7.982;2023-03-23T17:45:19;2.80;;;1.92;;
47365;SDS011;33105;47.964;7.982;2023-03-23T17:49:53;3.10;;;1.67;;
47365;SDS011;33105;47.964;7.982;2023-03-23T17:58:12;3.40;;;1.30;;
47365;SDS011;33105;47.964;7.982;2023-03-23T18:01:19;2.00;;;1.58;;
47365;SDS011;33105;47.964;7.982;2023-03-23T18:04:29;2.55;;;1.30;;
47365;SDS011;33105;47.964;7.982;2023-03-23T18:07:37;5.03;;;1.30;;
47365;SDS011;33105;47.964;7.982;2023-03-23T18:15:36;2.22;;;1.30;;
47365;SDS011;33105;47.964;7.982;2023-03-23T18:19:46;8.00;;;5.70;;
47365;SDS011;33105;47.964;7.982;2023-03-23T18:22:54;6.75;;;2.63;;
47365;SDS011;33105;47.964;7.982;2023-03-23T18:25:56;3.58;;;1.98;;
47365;SDS011;33105;47.964;7.982;2023-03-23T18:28:57;4.55;;;2.35;;
47365;SDS011;33105;47.964;7.982;2023-03-23T18:31:59;4.18;;;2.67;;
47365;SDS011;33105;47.964;7.982;2023-03-23T18:35:03;5.10;;;2.90;;
47365;SDS011;33105;47.964;7.982;2023-03-23T18:38:06;5.97;;;3.40;;
47365;SDS011;33105;47.964;7.982;2023-03-23T18:41:08;5.10;;;3.47;;
47365;SDS011;33105;47.964;7.982;2023-03-23T18:44:10;7.10;;;2.90;;
47365;SDS011;33105;47.964;7.982;2023-03-23T18:47:11;4.28;;;3.00;;
47365;SDS011;33105;47.964;7.982;2023-03-23T18:50:13;4.05;;;2.15;;
47365;SDS011;33105;47.964;7.982;2023-03-23T18:53:16;5.72;;;2.30;;
47365;SDS011;33105;47.964;7.982;2023-03-23T18:56:18;3.83;;;1.75;;
47365;SDS011;33105;47.964;7.982;2023-03-23T18:59:19;3.33;;;1.88;;
47365;SDS011;33105;47.964;7.982;2023-03-23T19:02:24;5.97;;;1.90;;
47365;SDS011;33105;47.964;7.982;2023-03-23T19:05:25;5.30;;;1.63;;
47365;SDS011;33105;47.964;7.982;2023-03-23T19:08:28;4.32;;;1.70;;
47365;SDS011;33105;47.964;7.982;2023-03-23T19:11:30;2.25;;;1.80;;
47365;SDS011;33105;47.964;7.982;2023-03-23T19:14:32;3.70;;;1.98;;
47365;SDS011;33105;47.964;7.982;2023-03-23T19:17:35;2.72;;;1.70;;
47365;SDS011;33105;47.964;7.982;2023-03-23T19:20:36;3.90;;;1.38;;
47365;SDS011;33105;47.964;7.982;2023-03-23T19:23:37;6.43;;;1.90;;
47365;SDS011;33105;47.964;7.982;2023-03-23T19:26:40;3.13;;;2.00;;
47365;SDS011;33105;47.964;7.982;2023-03-23T19:29:43;3.72;;;1.70;;
47365;SDS011;33105;47.964;7.982;2023-03-23T19:32:47;5.10;;;1.80;;
47365;SDS011;33105;47.964;7.982;2023-03-23T19:35:53;8.43;;;2.13;;
47365;SDS011;33105;47.964;7.982;2023-03-23T19:38:55;2.95;;;1.48;;
47365;SDS011;33105;47.964;7.982;2023-03-23T19:41:57;3.15;;;2.05;;
47365;SDS011;33105;47.964;7.982;2023-03-23T19:44:59;4.63;;;2.53;;
47365;SDS011;33105;47.964;7.982;2023-03-23T19:48:01;5.72;;;1.65;;
47365;SDS011;33105;47.964;7.982;2023-03-23T19:51:06;4.35;;;2.38;;
47365;SDS011;33105;47.964;7.982;2023-03-23T19:54:08;6.63;;;2.30;;
47365;SDS011;33105;47.964;7.982;2023-03-23T19:57:10;4.88;;;2.20;;
47365;SDS011;33105;47.964;7.982;2023-03-23T20:00:12;4.10;;;2.22;;
47365;SDS011;33105;47.964;7.982;2023-03-23T20:03:14;5.97;;;2.45;;
47365;SDS011;33105;47.964;7.982;2023-03-23T20:06:16;4.13;;;2.20;;
47365;SDS011;33105;47.964;7.982;2023-03-23T20:09:26;3.22;;;2.10;;
47365;SDS011;33105;47.964;7.982;2023-03-23T20:12:28;5.50;;;2.20;;
47365;SDS011;33105;47.964;7.982;2023-03-23T20:15:30;3.92;;;2.08;;
47365;SDS011;33105;47.964;7.982;2023-03-23T20:18:31;3.15;;;2.10;;
47365;SDS011;33105;47.964;7.982;2023-03-23T20:21:33;5.93;;;4.10;;
47365;SDS011;33105;47.964;7.982;2023-03-23T20:24:38;3.88;;;2.72;;
47365;SDS011;33105;47.964;7.982;2023-03-23T20:27:40;9.20;;;2.92;;
47365;SDS011;33105;47.964;7.982;2023-03-23T20:30:42;3.88;;;2.22;;
47365;SDS011;33105;47.964;7.982;2023-03-23T20:33:43;6.72;;;2.20;;
47365;SDS011;33105;47.964;7.982;2023-03-23T20:36:51;4.90;;;2.40;;
47365;SDS011;33105;47.964;7.982;2023-03-23T20:39:54;5.47;;;2.60;;
47365;SDS011;33105;47.964;7.982;2023-03-23T20:42:55;5.70;;;2.33;;
47365;SDS011;33105;47.964;7.982;2023-03-23T20:45:58;4.90;;;2.63;;
47365;SDS011;33105;47.964;7.982;2023-03-23T20:49:00;5.75;;;2.85;;
47365;SDS011;33105;47.964;7.982;2023-03-23T20:52:05;8.07;;;2.00;;
47365;SDS011;33105;47.964;7.982;2023-03-23T20:55:19;5.32;;;2.05;;
47365;SDS011;33105;47.964;7.982;2023-03-23T20:58:22;6.78;;;2.25;;
47365;SDS011;33105;47.964;7.982;2023-03-23T21:01:25;3.55;;;1.95;;
47365;SDS011;33105;47.964;7.982;2023-03-23T21:04:26;2.80;;;1.80;;
47365;SDS011;33105;47.964;7.982;2023-03-23T21:07:30;4.78;;;2.00;;
47365;SDS011;33105;47.964;7.982;2023-03-23T21:10:31;2.85;;;1.77;;
47365;SDS011;33105;47.964;7.982;2023-03-23T21:13:33;2.42;;;1.80;;
47365;SDS011;33105;47.964;7.982;2023-03-23T21:16:35;4.10;;;1.70;;
47365;SDS011;33105;47.964;7.982;2023-03-23T21:19:36;3.17;;;2.25;;
47365;SDS011;33105;47.964;7.982;2023-03-23T21:22:37;4.35;;;2.20;;
47365;SDS011;33105;47.964;7.982;2023-03-23T21:25:40;3.08;;;1.90;;
47365;SDS011;33105;47.964;7.982;2023-03-23T21:28:45;4.28;;;1.77;;
47365;SDS011;33105;47.964;7.982;2023-03-23T21:31:49;3.10;;;1.42;;
47365;SDS011;33105;47.964;7.982;2023-03-23T21:34:54;3.20;;;1.50;;
47365;SDS011;33105;47.964;7.982;2023-03-23T21:37:58;3.13;;;1.45;;
47365;SDS011;33105;47.964;7.982;2023-03-23T21:41:04;3.45;;;1.35;;
47365;SDS011;33105;47.964;7.982;2023-03-23T21:44:10;3.35;;;1.80;;
47365;SDS011;33105;47.964;7.982;2023-03-23T21:47:11;4.30;;;1.50;;
47365;SDS011;33105;47.964;7.982;2023-03-23T21:50:13;4.70;;;1.63;;
47365;SDS011;33105;47.964;7.982;2023-03-23T21:53:16;3.53;;;1.33;;
47365;SDS011;33105;47.964;7.982;2023-03-23T21:56:21;3.08;;;1.40;;
47365;SDS011;33105;47.964;7.982;2023-03-23T21:59:24;1.70;;;1.20;;
47365;SDS011;33105;47.964;7.982;2023-03-23T22:02:27;1.63;;;1.15;;
47365;SDS011;33105;47.964;7.982;2023-03-23T22:05:29;2.00;;;1.10;;
47365;SDS011;33105;47.964;7.982;2023-03-23T22:08:30;1.52;;;0.88;;
47365;SDS011;33105;47.964;7.982;2023-03-23T22:11:31;1.15;;;1.00;;
47365;SDS011;33105;47.964;7.982;2023-03-23T22:14:33;1.88;;;1.10;;
47365;SDS011;33105;47.964;7.982;2023-03-23T22:17:37;1.83;;;1.10;;
47365;SDS011;33105;47.964;7.982;2023-03-23T22:20:39;3.10;;;1.33;;
47365;SDS011;33105;47.964;7.982;2023-03-23T22:23:47;1.25;;;0.88;;
47365;SDS011;33105;47.964;7.982;2023-03-23T22:26:49;1.92;;;1.10;;
47365;SDS011;33105;47.964;7.982;2023-03-23T22:29:55;4.80;;;1.20;;
47365;SDS011;33105;47.964;7.982;2023-03-23T22:32:57;1.10;;;1.00;;
47365;SDS011;33105;47.964;7.982;2023-03-23T22:36:04;2.35;;;1.10;;
47365;SDS011;33105;47.964;7.982;2023-03-23T22:39:06;3.28;;;0.93;;
47365;SDS011;33105;47.964;7.982;2023-03-23T22:42:09;1.42;;;0.80;;
47365;SDS011;33105;47.964;7.982;2023-03-23T22:45:10;1.77;;;0.90;;
47365;SDS011;33105;47.964;7.982;2023-03-23T22:48:12;1.70;;;1.10;;
47365;SDS011;33105;47.964;7.982;2023-03-23T22:51:15;1.10;;;1.00;;
47365;SDS011;33105;47.964;7.982;2023-03-23T22:54:21;3.40;;;1.10;;
47365;SDS011;33105;47.964;7.982;2023-03-23T22:57:23;1.77;;;1.10;;
47365;SDS011;33105;47.964;7.982;2023-03-23T23:00:24;2.85;;;1.00;;
47365;SDS011;33105;47.964;7.982;2023-03-23T23:03:26;3.90;;;1.23;;
47365;SDS011;33105;47.964;7.982;2023-03-23T23:06:31;1.65;;;1.00;;
47365;SDS011;33105;47.964;7.982;2023-03-23T23:09:32;2.53;;;1.10;;
47365;SDS011;33105;47.964;7.982;2023-03-23T23:12:34;1.52;;;1.10;;
47365;SDS011;33105;47.964;7.982;2023-03-23T23:15:36;2.80;;;1.17;;
47365;SDS011;33105;47.964;7.982;2023-03-23T23:18:39;2.75;;;0.95;;
47365;SDS011;33105;47.964;7.982;2023-03-23T23:21:43;2.38;;;1.08;;
47365;SDS011;33105;47.964;7.982;2023-03-23T23:24:46;1.33;;;0.98;;
47365;SDS011;33105;47.964;7.982;2023-03-23T23:27:48;1.50;;;1.08;;
47365;SDS011;33105;47.964;7.982;2023-03-23T23:30:50;1.17;;;0.88;;
47365;SDS011;33105;47.964;7.982;2023-03-23T23:33:55;1.77;;;1.08;;
47365;SDS011;33105;47.964;7.982;2023-03-23T23:37:01;1.92;;;1.13;;
47365;SDS011;33105;47.964;7.982;2023-03-23T23:40:03;2.00;;;0.90;;
47365;SDS011;33105;47.964;7.982;2023-03-23T23:43:21;1.50;;;0.80;;
47365;SDS011;33105;47.964;7.982;2023-03-23T23:46:22;4.03;;;1.20;;
47365;SDS011;33105;47.964;7.982;2023-03-23T23:49:24;2.55;;;1.10;;
47365;SDS011;33105;47.964;7.982;2023-03-23T23:52:28;2.70;;;0.98;;
47365;SDS011;33105;47.964;7.982;2023-03-23T23:55:29;0.70;;;0.70;;
47365;SDS011;33105;47.964;7.982;2023-03-23T23:58:31;1.33;;;0.90;;
